createdAt,value
2022-08-20T00:00:07.676Z,16.20
2022-08-20T00:02:46.185Z,15.50
2022-08-20T00:05:14.078Z,15.50
2022-08-20T00:07:40.934Z,15.60
2022-08-20T00:10:08.545Z,15.60
2022-08-20T00:12:35.941Z,15.70
2022-08-20T00:15:03.820Z,15.70
2022-08-20T00:17:37.146Z,15.70
2022-08-20T00:20:09.365Z,15.70
2022-08-20T00:22:36.252Z,15.80
2022-08-20T00:25:05.082Z,15.80
2022-08-20T00:27:31.925Z,15.80
2022-08-20T00:29:58.828Z,15.80
2022-08-20T00:32:25.742Z,15.80
2022-08-20T00:34:52.579Z,15.90
2022-08-20T00:37:19.485Z,16.00
2022-08-20T00:39:46.388Z,16.00
2022-08-20T00:42:13.327Z,16.40
2022-08-20T00:44:46.200Z,16.00
2022-08-20T00:47:13.058Z,16.30
2022-08-20T00:49:40.022Z,16.00
2022-08-20T00:52:14.757Z,16.00
2022-08-20T00:54:49.754Z,16.00
2022-08-20T00:57:54.809Z,16.00
2022-08-20T01:00:32.807Z,16.00
2022-08-20T01:03:00.650Z,16.10
2022-08-20T01:05:29.843Z,16.00
2022-08-20T01:07:57.448Z,16.10
2022-08-20T01:10:27.739Z,16.10
2022-08-20T01:12:59.043Z,16.10
2022-08-20T01:15:31.222Z,16.10
2022-08-20T01:17:58.732Z,17.70
2022-08-20T01:20:29.362Z,16.10
2022-08-20T01:23:29.869Z,17.20
2022-08-20T01:26:14.924Z,16.10
2022-08-20T01:28:51.074Z,16.10
2022-08-20T01:31:20.917Z,16.20
2022-08-20T01:33:48.161Z,16.20
2022-08-20T01:36:16.220Z,16.80
2022-08-20T01:38:54.095Z,16.90
2022-08-20T01:41:53.550Z,16.30
2022-08-20T01:44:20.785Z,16.30
2022-08-20T01:46:48.791Z,16.30
2022-08-20T01:49:22.959Z,16.40
2022-08-20T01:51:51.216Z,16.30
2022-08-20T01:54:18.127Z,16.40
2022-08-20T01:56:57.393Z,16.40
2022-08-20T01:59:24.284Z,16.40
2022-08-20T02:01:51.557Z,16.50
2022-08-20T02:04:18.826Z,16.40
2022-08-20T02:06:56.130Z,16.40
2022-08-20T02:09:28.779Z,17.80
2022-08-20T02:11:57.430Z,16.50
2022-08-20T02:14:24.543Z,16.40
2022-08-20T02:16:55.017Z,16.50
2022-08-20T02:19:46.192Z,16.50
2022-08-20T02:22:28.217Z,16.50
2022-08-20T02:24:56.552Z,16.50
2022-08-20T02:27:23.891Z,16.60
2022-08-20T02:29:51.987Z,16.50
2022-08-20T02:32:32.238Z,16.60
2022-08-20T02:35:02.262Z,16.50
2022-08-20T02:37:29.251Z,16.60
2022-08-20T02:39:56.091Z,16.60
2022-08-20T02:42:23.005Z,16.50
2022-08-20T02:44:49.820Z,16.70
2022-08-20T02:47:17.249Z,16.60
2022-08-20T02:49:44.129Z,16.60
2022-08-20T02:52:11.076Z,16.60
2022-08-20T02:54:37.921Z,16.60
2022-08-20T02:57:04.934Z,16.60
2022-08-20T02:59:31.724Z,16.60
2022-08-20T03:02:00.429Z,16.60
2022-08-20T03:04:31.081Z,16.60
2022-08-20T03:06:58.655Z,16.50
2022-08-20T03:09:25.644Z,16.60
2022-08-20T03:11:52.930Z,16.70
2022-08-20T03:14:19.770Z,16.60
2022-08-20T03:16:46.554Z,16.60
2022-08-20T03:19:13.849Z,16.60
2022-08-20T03:21:40.814Z,16.60
2022-08-20T03:24:07.814Z,16.60
2022-08-20T03:26:34.700Z,16.60
2022-08-20T03:29:01.576Z,16.60
2022-08-20T03:31:29.655Z,16.60
2022-08-20T03:33:56.551Z,16.70
2022-08-20T03:36:28.124Z,16.60
2022-08-20T03:39:00.513Z,16.70
2022-08-20T03:41:27.593Z,16.70
2022-08-20T03:43:54.913Z,16.70
2022-08-20T03:46:23.297Z,16.70
2022-08-20T03:49:00.011Z,16.70
2022-08-20T03:51:30.841Z,16.70
2022-08-20T03:53:57.765Z,16.70
2022-08-20T03:56:24.817Z,16.80
2022-08-20T03:58:51.627Z,16.70
2022-08-20T04:01:45.548Z,17.50
2022-08-20T04:04:05.258Z,17.50
2022-08-20T04:06:39.367Z,16.80
2022-08-20T04:09:07.209Z,16.80
2022-08-20T04:11:37.611Z,16.90
2022-08-20T04:14:04.744Z,16.80
2022-08-20T04:16:33.030Z,16.80
2022-08-20T04:19:02.197Z,16.80
2022-08-20T04:21:33.052Z,16.80
2022-08-20T04:24:00.492Z,16.90
2022-08-20T04:26:27.362Z,16.80
2022-08-20T04:28:55.613Z,16.80
2022-08-20T04:31:33.543Z,16.80
2022-08-20T04:34:04.626Z,16.90
2022-08-20T04:36:31.475Z,16.90
2022-08-20T04:38:58.330Z,16.90
2022-08-20T04:41:25.109Z,16.90
2022-08-20T04:43:55.910Z,16.90
2022-08-20T04:46:25.501Z,16.90
2022-08-20T04:48:52.741Z,17.00
2022-08-20T04:51:23.253Z,17.00
2022-08-20T04:53:51.970Z,17.00
2022-08-20T04:56:23.436Z,17.00
2022-08-20T04:58:51.381Z,17.00
2022-08-20T05:01:18.317Z,17.00
2022-08-20T05:03:47.722Z,17.00
2022-08-20T05:06:16.268Z,17.20
2022-08-20T05:08:43.335Z,17.10
2022-08-20T05:11:34.365Z,17.10
2022-08-20T05:13:57.180Z,17.20
2022-08-20T05:16:24.584Z,17.20
2022-08-20T05:18:52.449Z,17.20
2022-08-20T05:21:20.341Z,17.20
2022-08-20T05:23:47.255Z,17.20
2022-08-20T05:26:15.955Z,17.70
2022-08-20T05:28:54.123Z,17.30
2022-08-20T05:31:31.667Z,17.30
2022-08-20T05:34:02.521Z,17.30
2022-08-20T05:36:29.539Z,17.30
2022-08-20T05:38:56.363Z,17.30
2022-08-20T05:41:27.519Z,17.30
2022-08-20T05:43:56.968Z,17.30
2022-08-20T05:46:23.723Z,17.30
2022-08-20T05:48:50.575Z,17.30
2022-08-20T05:51:17.586Z,17.30
2022-08-20T05:53:44.386Z,17.40
2022-08-20T05:56:11.419Z,17.30
2022-08-20T05:58:38.276Z,17.30
2022-08-20T06:01:05.483Z,17.30
2022-08-20T06:03:50.910Z,17.30
2022-08-20T06:06:44.063Z,17.20
2022-08-20T06:09:04.609Z,17.30
2022-08-20T06:11:35.149Z,17.30
2022-08-20T06:14:03.998Z,17.40
2022-08-20T06:16:30.944Z,17.30
2022-08-20T06:18:58.575Z,17.30
2022-08-20T06:21:26.085Z,17.30
2022-08-20T06:23:56.800Z,17.40
2022-08-20T06:26:30.328Z,17.40
2022-08-20T06:28:58.681Z,17.40
2022-08-20T06:31:25.945Z,17.40
2022-08-20T06:33:52.776Z,17.50
2022-08-20T06:36:19.734Z,17.50
2022-08-20T06:38:46.721Z,17.60
2022-08-20T06:41:14.015Z,17.60
2022-08-20T06:43:40.976Z,17.70
2022-08-20T06:46:08.215Z,17.70
2022-08-20T06:48:35.255Z,17.70
2022-08-20T06:51:02.150Z,17.70
2022-08-20T06:53:29.263Z,17.80
2022-08-20T06:55:56.926Z,17.80
2022-08-20T06:58:37.964Z,17.80
2022-08-20T07:01:10.237Z,17.90
2022-08-20T07:03:38.857Z,17.90
2022-08-20T07:06:06.154Z,18.00
2022-08-20T07:08:33.102Z,18.00
2022-08-20T07:10:59.938Z,18.00
2022-08-20T07:13:28.380Z,18.00
2022-08-20T07:15:55.572Z,18.00
2022-08-20T07:18:27.858Z,18.10
2022-08-20T07:20:57.122Z,18.10
2022-08-20T07:23:25.068Z,18.10
2022-08-20T07:25:51.920Z,18.10
2022-08-20T07:28:20.515Z,18.20
2022-08-20T07:31:13.313Z,18.20
2022-08-20T07:33:41.425Z,18.30
2022-08-20T07:36:08.678Z,18.40
2022-08-20T07:38:36.384Z,18.50
2022-08-20T07:41:05.497Z,18.60
2022-08-20T07:43:32.517Z,18.60
2022-08-20T07:46:03.146Z,18.60
2022-08-20T07:48:32.349Z,18.70
2022-08-20T07:51:04.335Z,18.80
2022-08-20T07:53:35.838Z,18.70
2022-08-20T07:56:05.950Z,18.80
2022-08-20T07:58:33.181Z,19.00
2022-08-20T08:01:00.611Z,19.10
2022-08-20T08:03:39.845Z,19.20
2022-08-20T08:06:17.273Z,19.40
2022-08-20T08:09:10.176Z,19.60
2022-08-20T08:11:39.281Z,19.60
2022-08-20T08:14:08.269Z,19.70
2022-08-20T08:16:35.783Z,19.60
2022-08-20T08:19:02.601Z,19.60
2022-08-20T08:21:30.506Z,19.60
2022-08-20T08:23:58.330Z,19.50
2022-08-20T08:26:26.263Z,19.50
2022-08-20T08:28:53.122Z,19.50
2022-08-20T08:31:20.043Z,19.50
2022-08-20T08:33:46.889Z,19.50
2022-08-20T08:36:15.024Z,19.40
2022-08-20T08:38:44.416Z,19.40
2022-08-20T08:41:19.087Z,21.10
2022-08-20T08:43:47.873Z,19.50
2022-08-20T08:46:18.261Z,19.50
2022-08-20T08:48:46.295Z,19.70
2022-08-20T08:51:16.239Z,19.70
2022-08-20T08:53:54.797Z,19.70
2022-08-20T08:56:24.454Z,19.80
2022-08-20T08:58:51.375Z,21.30
2022-08-20T09:01:53.076Z,19.90
2022-08-20T09:04:05.980Z,19.90
2022-08-20T09:06:32.827Z,19.90
2022-08-20T09:09:01.859Z,19.90
2022-08-20T09:11:29.211Z,19.90
2022-08-20T09:13:56.194Z,20.00
2022-08-20T09:16:23.932Z,20.10
2022-08-20T09:18:51.238Z,20.20
2022-08-20T09:21:19.507Z,20.30
2022-08-20T09:23:46.315Z,20.50
2022-08-20T09:26:13.721Z,20.60
2022-08-20T09:28:40.668Z,20.70
2022-08-20T09:31:07.471Z,20.80
2022-08-20T09:33:34.383Z,20.90
2022-08-20T09:36:01.296Z,21.10
2022-08-20T09:38:28.157Z,21.30
2022-08-20T09:40:54.983Z,21.40
2022-08-20T09:43:21.840Z,21.50
2022-08-20T09:45:48.658Z,21.70
2022-08-20T09:48:15.458Z,21.70
2022-08-20T09:50:44.467Z,21.90
2022-08-20T09:53:11.325Z,22.10
2022-08-20T09:55:43.181Z,22.20
2022-08-20T09:58:34.973Z,22.20
2022-08-20T10:01:15.002Z,22.30
2022-08-20T10:03:42.840Z,22.40
2022-08-20T10:06:11.174Z,22.60
2022-08-20T10:08:38.450Z,22.70
2022-08-20T10:11:05.495Z,22.80
2022-08-20T10:13:32.357Z,22.80
2022-08-20T10:15:59.233Z,22.80
2022-08-20T10:18:26.037Z,22.80
2022-08-20T10:20:52.841Z,22.80
2022-08-20T10:23:19.703Z,22.80
2022-08-20T10:25:46.589Z,22.80
2022-08-20T10:28:13.441Z,22.80
2022-08-20T10:30:40.275Z,22.90
2022-08-20T10:33:07.141Z,22.90
2022-08-20T10:35:33.964Z,22.90
2022-08-20T10:38:00.796Z,23.00
2022-08-20T10:40:27.718Z,23.00
2022-08-20T10:42:54.529Z,23.00
2022-08-20T10:45:21.329Z,23.00
2022-08-20T10:47:48.177Z,23.10
2022-08-20T10:50:15.848Z,23.20
2022-08-20T10:52:42.789Z,23.30
2022-08-20T10:55:10.039Z,23.20
2022-08-20T10:57:38.156Z,23.10
2022-08-20T11:00:07.404Z,23.10
2022-08-20T11:02:34.267Z,23.10
2022-08-20T11:05:01.070Z,23.20
2022-08-20T11:07:54.799Z,23.40
2022-08-20T11:10:14.870Z,23.60
2022-08-20T11:12:42.189Z,23.80
2022-08-20T11:15:13.689Z,23.80
2022-08-20T11:17:41.413Z,23.90
2022-08-20T11:20:09.166Z,24.00
2022-08-20T11:22:36.034Z,24.00
2022-08-20T11:25:04.309Z,24.10
2022-08-20T11:27:34.920Z,24.10
2022-08-20T11:30:01.920Z,24.20
2022-08-20T11:32:28.875Z,24.40
2022-08-20T11:34:55.702Z,24.40
2022-08-20T11:37:22.766Z,24.40
2022-08-20T11:39:49.669Z,24.40
2022-08-20T11:42:16.584Z,24.40
2022-08-20T11:44:43.464Z,24.40
2022-08-20T11:47:19.311Z,24.50
2022-08-20T11:49:46.167Z,24.50
2022-08-20T11:52:13.061Z,24.60
2022-08-20T11:54:40.711Z,24.60
2022-08-20T11:57:07.628Z,24.50
2022-08-20T11:59:34.472Z,24.30
2022-08-20T12:02:02.374Z,24.10
2022-08-20T12:04:33.680Z,23.90
2022-08-20T12:07:10.147Z,23.80
2022-08-20T12:09:37.074Z,23.80
2022-08-20T12:12:08.947Z,23.80
2022-08-20T12:14:37.067Z,23.80
2022-08-20T12:17:14.475Z,23.70
2022-08-20T12:19:41.898Z,23.60
2022-08-20T12:22:24.302Z,23.50
2022-08-20T12:24:53.017Z,23.50
2022-08-20T12:27:23.189Z,23.50
2022-08-20T12:29:52.456Z,23.50
2022-08-20T12:32:20.517Z,23.50
2022-08-20T12:34:47.334Z,23.60
2022-08-20T12:37:16.219Z,23.60
2022-08-20T12:39:45.500Z,23.60
2022-08-20T12:43:06.373Z,23.60
2022-08-20T12:45:33.301Z,23.50
2022-08-20T12:48:03.639Z,23.30
2022-08-20T12:50:31.758Z,23.10
2022-08-20T12:52:59.288Z,23.10
2022-08-20T12:55:26.284Z,22.90
2022-08-20T12:57:56.613Z,23.00
2022-08-20T13:00:29.355Z,23.10
2022-08-20T13:02:57.366Z,23.20
2022-08-20T13:05:24.475Z,23.30
2022-08-20T13:07:51.454Z,23.30
2022-08-20T13:10:23.694Z,23.40
2022-08-20T13:12:50.616Z,23.50
2022-08-20T13:15:17.642Z,23.80
2022-08-20T13:17:44.486Z,24.00
2022-08-20T13:20:14.334Z,24.30
2022-08-20T13:22:41.487Z,24.40
2022-08-20T13:25:08.992Z,24.60
2022-08-20T13:27:38.488Z,24.60
2022-08-20T13:30:06.792Z,24.80
2022-08-20T13:32:34.469Z,25.00
2022-08-20T13:35:01.521Z,25.30
2022-08-20T13:37:28.760Z,25.50
2022-08-20T13:39:55.869Z,25.70
2022-08-20T13:42:22.783Z,25.80
2022-08-20T13:44:49.681Z,25.90
2022-08-20T13:47:18.435Z,26.10
2022-08-20T13:49:45.516Z,26.30
2022-08-20T13:52:12.429Z,26.50
2022-08-20T13:54:43.839Z,26.70
2022-08-20T13:57:13.099Z,26.80
2022-08-20T13:59:42.120Z,26.90
2022-08-20T14:02:09.267Z,26.90
2022-08-20T14:04:36.329Z,27.00
2022-08-20T14:07:24.716Z,27.10
2022-08-20T14:09:57.051Z,27.30
2022-08-20T14:12:24.377Z,27.50
2022-08-20T14:14:51.864Z,27.60
2022-08-20T14:17:19.998Z,27.80
2022-08-20T14:19:47.245Z,27.90
2022-08-20T14:22:14.305Z,27.70
2022-08-20T14:24:41.143Z,27.50
2022-08-20T14:27:08.311Z,27.30
2022-08-20T14:29:36.812Z,27.40
2022-08-20T14:32:04.557Z,27.70
2022-08-20T14:34:31.953Z,28.10
2022-08-20T14:37:19.377Z,28.40
2022-08-20T14:39:48.253Z,28.30
2022-08-20T14:42:15.268Z,27.80
2022-08-20T14:44:42.264Z,27.40
2022-08-20T14:47:23.124Z,26.90
2022-08-20T14:49:50.893Z,26.50
2022-08-20T14:52:18.460Z,26.10
2022-08-20T14:54:45.671Z,25.70
2022-08-20T14:57:14.267Z,25.50
2022-08-20T14:59:41.620Z,25.30
2022-08-20T15:02:12.807Z,25.10
2022-08-20T15:04:39.870Z,25.00
2022-08-20T15:07:13.933Z,24.80
2022-08-20T15:09:43.270Z,24.50
2022-08-20T15:12:10.136Z,24.20
2022-08-20T15:14:39.165Z,23.90
2022-08-20T15:17:06.217Z,23.70
2022-08-20T15:19:33.078Z,23.60
2022-08-20T15:22:00.095Z,23.70
2022-08-20T15:24:26.956Z,24.30
2022-08-20T15:26:53.823Z,25.20
2022-08-20T15:29:23.041Z,26.10
2022-08-20T15:31:51.092Z,26.90
2022-08-20T15:34:18.426Z,27.50
2022-08-20T15:36:45.952Z,27.80
2022-08-20T15:39:12.814Z,27.80
2022-08-20T15:41:39.681Z,27.50
2022-08-20T15:44:07.234Z,27.00
2022-08-20T15:46:38.984Z,26.80
2022-08-20T15:49:08.364Z,27.00
2022-08-20T15:51:39.091Z,27.40
2022-08-20T15:54:14.107Z,27.70
2022-08-20T15:56:50.188Z,28.10
2022-08-20T15:59:38.980Z,28.30
2022-08-20T16:02:26.487Z,28.10
2022-08-20T16:04:56.587Z,28.20
2022-08-20T16:07:37.665Z,28.60
2022-08-20T16:10:22.413Z,29.00
2022-08-20T16:12:52.096Z,29.30
2022-08-20T16:15:23.184Z,29.40
2022-08-20T16:18:07.151Z,30.60
2022-08-20T16:20:47.738Z,29.80
2022-08-20T16:23:20.201Z,30.00
2022-08-20T16:26:06.740Z,30.00
2022-08-20T16:28:56.727Z,30.00
2022-08-20T16:31:25.611Z,30.10
2022-08-20T16:34:33.377Z,30.20
2022-08-20T16:37:17.261Z,30.40
2022-08-20T16:40:23.738Z,30.50
2022-08-20T16:42:51.977Z,30.60
2022-08-20T16:45:50.829Z,30.60
2022-08-20T16:48:18.600Z,30.50
2022-08-20T16:50:58.006Z,30.50
2022-08-20T16:53:25.672Z,30.50
2022-08-20T16:55:53.116Z,30.50
2022-08-20T16:58:20.015Z,30.50
2022-08-20T17:00:46.997Z,30.40
2022-08-20T17:03:31.665Z,30.40
2022-08-20T17:06:00.721Z,30.50
2022-08-20T17:08:35.212Z,30.50
2022-08-20T17:11:13.774Z,30.40
2022-08-20T17:13:45.458Z,30.30
2022-08-20T17:16:15.290Z,29.50
2022-08-20T17:18:49.966Z,29.10
2022-08-20T17:21:28.292Z,28.70
2022-08-20T17:24:05.859Z,28.50
2022-08-20T17:26:37.609Z,28.60
2022-08-20T17:29:21.751Z,28.50
2022-08-20T17:32:10.099Z,28.10
2022-08-20T17:34:51.105Z,27.60
2022-08-20T17:37:22.561Z,27.00
2022-08-20T17:39:52.366Z,26.50
2022-08-20T17:42:21.663Z,25.90
2022-08-20T17:44:55.157Z,25.50
2022-08-20T17:47:31.221Z,25.00
2022-08-20T17:50:02.628Z,24.70
2022-08-20T17:52:34.975Z,24.20
2022-08-20T17:55:02.042Z,23.80
2022-08-20T17:57:33.278Z,23.50
2022-08-20T18:00:02.951Z,23.10
2022-08-20T18:02:31.971Z,22.80
2022-08-20T18:04:58.859Z,22.50
2022-08-20T18:08:08.232Z,22.30
2022-08-20T18:10:43.172Z,22.00
2022-08-20T18:13:18.940Z,21.80
2022-08-20T18:15:54.034Z,21.60
2022-08-20T18:18:56.177Z,21.50
2022-08-20T18:21:42.230Z,21.30
2022-08-20T18:24:15.188Z,21.10
2022-08-20T18:26:49.350Z,21.00
2022-08-20T18:29:21.594Z,20.80
2022-08-20T18:31:53.339Z,20.70
2022-08-20T18:34:43.288Z,20.60
2022-08-20T18:37:12.917Z,20.50
2022-08-20T18:39:41.005Z,20.40
2022-08-20T18:42:10.905Z,20.30
2022-08-20T18:44:41.774Z,20.20
2022-08-20T18:47:19.954Z,20.20
2022-08-20T18:49:47.065Z,20.10
2022-08-20T18:52:23.044Z,20.00
2022-08-20T18:54:51.640Z,20.00
2022-08-20T18:57:41.132Z,19.90
2022-08-20T19:00:14.402Z,19.90
2022-08-20T19:03:08.799Z,19.90
2022-08-20T19:05:38.405Z,19.80
2022-08-20T19:08:05.837Z,19.80
2022-08-20T19:10:44.007Z,19.70
2022-08-20T19:13:46.127Z,19.70
2022-08-20T19:16:18.383Z,19.60
2022-08-20T19:18:52.667Z,19.50
2022-08-20T19:21:42.832Z,19.40
2022-08-20T19:24:10.525Z,19.40
2022-08-20T19:26:42.917Z,19.40
2022-08-20T19:29:14.592Z,19.30
2022-08-20T19:31:41.814Z,19.20
2022-08-20T19:34:19.846Z,19.10
2022-08-20T19:36:56.231Z,19.00
2022-08-20T19:39:25.528Z,19.00
2022-08-20T19:42:01.769Z,19.30
2022-08-20T19:45:02.347Z,18.80
2022-08-20T19:47:31.377Z,18.80
2022-08-20T19:50:27.212Z,18.70
2022-08-20T19:53:10.021Z,18.60
2022-08-20T19:55:38.196Z,18.50
2022-08-20T19:58:07.075Z,18.60
2022-08-20T20:00:42.737Z,18.30
2022-08-20T20:03:29.009Z,18.30
2022-08-20T20:06:00.891Z,18.20
2022-08-20T20:08:29.912Z,18.10
2022-08-20T20:10:59.955Z,18.10
2022-08-20T20:13:27.578Z,18.00
2022-08-20T20:16:01.202Z,17.80
2022-08-20T20:18:29.924Z,17.80
2022-08-20T20:21:13.866Z,17.70
2022-08-20T20:23:46.696Z,17.60
2022-08-20T20:26:16.736Z,17.70
2022-08-20T20:28:52.925Z,17.50
2022-08-20T20:31:25.542Z,17.40
2022-08-20T20:33:54.764Z,17.30
2022-08-20T20:36:36.972Z,18.20
2022-08-20T20:39:14.214Z,17.30
2022-08-20T20:41:50.736Z,17.30
2022-08-20T20:44:20.267Z,17.30
2022-08-20T20:46:48.928Z,17.30
2022-08-20T20:49:22.363Z,17.70
2022-08-20T20:52:02.851Z,17.30
2022-08-20T20:54:31.158Z,17.20
2022-08-20T20:57:05.439Z,17.20
2022-08-20T20:59:33.404Z,17.20
2022-08-20T21:02:00.466Z,17.40
2022-08-20T21:04:27.488Z,17.20
2022-08-20T21:06:55.845Z,17.10
2022-08-20T21:09:23.178Z,17.10
2022-08-20T21:11:50.160Z,17.10
2022-08-20T21:14:17.276Z,17.00
2022-08-20T21:16:44.178Z,17.00
2022-08-20T21:19:11.296Z,16.90
2022-08-20T21:21:38.699Z,17.40
2022-08-20T21:24:05.926Z,17.30
2022-08-20T21:26:32.895Z,16.90
2022-08-20T21:28:59.752Z,16.80
2022-08-20T21:31:29.904Z,16.90
2022-08-20T21:33:56.756Z,16.80
2022-08-20T21:36:23.656Z,16.80
2022-08-20T21:38:51.389Z,16.80
2022-08-20T21:41:18.323Z,16.80
2022-08-20T21:43:56.601Z,16.80
2022-08-20T21:46:24.842Z,16.70
2022-08-20T21:48:52.050Z,16.70
2022-08-20T21:51:18.942Z,16.70
2022-08-20T21:53:45.886Z,16.90
2022-08-20T21:56:12.758Z,16.60
2022-08-20T21:58:39.672Z,16.60
2022-08-20T22:01:06.992Z,16.60
2022-08-20T22:03:36.862Z,16.50
2022-08-20T22:06:06.379Z,16.50
2022-08-20T22:08:33.248Z,16.50
2022-08-20T22:11:00.272Z,16.40
2022-08-20T22:13:31.392Z,16.50
2022-08-20T22:15:59.518Z,16.40
2022-08-20T22:18:26.508Z,16.30
2022-08-20T22:20:53.464Z,16.30
2022-08-20T22:23:20.324Z,16.50
2022-08-20T22:25:47.165Z,16.20
2022-08-20T22:28:14.003Z,16.20
2022-08-20T22:30:42.519Z,16.10
2022-08-20T22:33:12.069Z,16.10
2022-08-20T22:35:45.153Z,16.10
2022-08-20T22:38:12.250Z,16.00
2022-08-20T22:40:39.220Z,15.90
2022-08-20T22:43:06.177Z,15.90
2022-08-20T22:45:33.123Z,15.90
2022-08-20T22:48:00.163Z,15.80
2022-08-20T22:50:27.232Z,15.90
2022-08-20T22:52:54.185Z,15.80
2022-08-20T22:55:21.125Z,15.70
2022-08-20T22:57:48.056Z,15.70
2022-08-20T23:00:16.958Z,15.60
2022-08-20T23:02:51.813Z,15.60
2022-08-20T23:05:20.421Z,15.50
2022-08-20T23:07:51.901Z,15.50
2022-08-20T23:10:20.731Z,15.50
2022-08-20T23:12:47.578Z,15.40
2022-08-20T23:15:14.529Z,15.50
2022-08-20T23:17:41.599Z,15.40
2022-08-20T23:20:09.932Z,15.90
2022-08-20T23:22:36.928Z,15.30
2022-08-20T23:25:07.381Z,15.80
2022-08-20T23:27:40.792Z,15.20
2022-08-20T23:30:07.781Z,15.70
2022-08-20T23:32:34.577Z,15.10
2022-08-20T23:35:01.435Z,15.20
2022-08-20T23:37:28.382Z,15.00
2022-08-20T23:39:55.697Z,15.50
2022-08-20T23:42:22.660Z,15.00
2022-08-20T23:44:49.528Z,15.00
2022-08-20T23:47:19.365Z,15.40
2022-08-20T23:49:46.422Z,15.50
2022-08-20T23:52:13.236Z,15.60
2022-08-20T23:54:40.046Z,14.90
2022-08-20T23:57:08.092Z,15.10
2022-08-20T23:59:35.759Z,15.40
